Time;durP1;ratioP1;P1;durP2;ratioP2;P2;SDS_P1;SDS_P2;PMS_P1;PMS_P2;Temp;Humidity;BMP_temperature;BMP_pressure;BME280_temperature;BME280_humidity;BME280_pressure;Samples;Min_cycle;Max_cycle;Signal;HPM_P1;HPM_P2
2023/03/17 00:00:18;;;;;;;;;14.00;13.40;;;;;;;;5086057;29;8948;-75
2023/03/17 00:02:50;;;;;;;;;13.20;13.20;;;;;;;;5070538;29;8968;-75
2023/03/17 00:05:23;;;;;;;;;7.00;7.00;;;;;;;;5069881;29;9572;-74
2023/03/17 00:07:54;;;;;;;;;8.40;7.80;;;;;;;;5086512;29;8814;-75
2023/03/17 00:10:25;;;;;;;;;9.80;9.80;;;;;;;;5090811;29;8819;-76
2023/03/17 00:12:56;;;;;;;;;6.20;6.20;;;;;;;;5104875;29;8814;-75
2023/03/17 00:15:28;;;;;;;;;6.00;6.00;;;;;;;;5103936;29;8815;-76
2023/03/17 00:17:59;;;;;;;;;8.60;8.60;;;;;;;;5088541;29;9743;-73
2023/03/17 00:20:31;;;;;;;;;6.80;6.80;;;;;;;;5105511;29;8826;-74
2023/03/17 00:23:05;;;;;;;;;7.20;7.20;;;;;;;;5104678;29;8815;-74
2023/03/17 00:25:36;;;;;;;;;10.20;10.20;;;;;;;;5088621;29;8815;-74
2023/03/17 00:28:27;;;;;;;;;9.40;8.60;;;;;;;;5088569;29;8886;-74
2023/03/17 00:31:00;;;;;;;;;12.40;12.40;;;;;;;;5074645;29;8848;-75
2023/03/17 00:33:33;;;;;;;;;18.60;18.60;;;;;;;;5085995;29;8798;-75
2023/03/17 00:36:05;;;;;;;;;12.40;11.00;;;;;;;;5088724;29;9564;-72
2023/03/17 00:38:36;;;;;;;;;9.00;9.00;;;;;;;;5088541;29;8811;-73
2023/03/17 00:41:08;;;;;;;;;8.40;7.00;;;;;;;;5104194;29;8835;-73
2023/03/17 00:43:40;;;;;;;;;28.20;24.00;;;;;;;;5104172;29;8787;-75
2023/03/17 00:46:13;;;;;;;;;19.60;19.60;;;;;;;;5104440;29;8890;-75
2023/03/17 00:48:44;;;;;;;;;12.40;12.40;;;;;;;;5099289;29;8813;-74
2023/03/17 00:51:15;;;;;;;;;26.40;25.80;;;;;;;;5084266;29;8837;-74
2023/03/17 00:53:46;;;;;;;;;32.00;30.60;;;;;;;;5093430;29;8964;-74
2023/03/17 00:56:19;;;;;;;;;42.80;36.40;;;;;;;;5087963;29;8803;-74
2023/03/17 00:58:50;;;;;;;;;51.60;44.00;;;;;;;;5103940;29;8885;-74
2023/03/17 01:01:21;;;;;;;;;45.80;40.80;;;;;;;;5103753;29;8807;-74
2023/03/17 01:03:52;;;;;;;;;49.50;42.50;;;;;;;;5103885;29;9553;-74
2023/03/17 01:06:23;;;;;;;;;38.20;35.80;;;;;;;;5103380;29;11602;-75
2023/03/17 01:08:54;;;;;;;;;47.00;41.60;;;;;;;;5088192;29;8807;-75
2023/03/17 01:11:44;;;;;;;;;29.40;28.80;;;;;;;;5100139;29;8814;-74
2023/03/17 01:14:16;;;;;;;;;32.40;32.40;;;;;;;;5083951;29;8802;-75
2023/03/17 01:16:47;;;;;;;;;35.60;33.80;;;;;;;;5083493;29;8836;-73
2023/03/17 01:19:18;;;;;;;;;32.80;31.80;;;;;;;;5068343;29;8821;-73
2023/03/17 01:21:49;;;;;;;;;26.75;26.50;;;;;;;;5068203;29;8810;-73
2023/03/17 01:24:20;;;;;;;;;15.00;15.00;;;;;;;;5085003;29;8794;-74
2023/03/17 01:26:51;;;;;;;;;16.00;15.40;;;;;;;;5090163;29;8791;-72
2023/03/17 01:29:22;;;;;;;;;14.80;14.80;;;;;;;;5103117;29;8812;-72
2023/03/17 01:31:55;;;;;;;;;18.60;16.80;;;;;;;;5090444;29;8937;-72
2023/03/17 01:34:26;;;;;;;;;18.00;16.80;;;;;;;;5083613;29;8944;-72
2023/03/17 01:36:57;;;;;;;;;20.40;19.40;;;;;;;;5083652;29;8810;-73
2023/03/17 01:39:30;;;;;;;;;32.80;29.00;;;;;;;;5084295;29;8832;-73
2023/03/17 01:42:01;;;;;;;;;33.75;32.00;;;;;;;;5084631;29;8809;-72
2023/03/17 01:44:32;;;;;;;;;24.20;23.20;;;;;;;;5067870;29;11617;-72
2023/03/17 01:47:03;;;;;;;;;17.00;17.00;;;;;;;;5101105;29;8803;-72
2023/03/17 01:49:36;;;;;;;;;17.80;17.40;;;;;;;;5083054;29;9676;-72
2023/03/17 01:52:27;;;;;;;;;15.40;15.40;;;;;;;;5084837;29;8786;-72
2023/03/17 01:55:18;;;;;;;;;14.00;14.00;;;;;;;;5071298;29;8814;-72
2023/03/17 01:57:55;;;;;;;;;12.00;12.00;;;;;;;;5084175;29;9553;-72
2023/03/17 02:00:26;;;;;;;;;12.00;12.00;;;;;;;;5067602;29;8845;-74
2023/03/17 02:03:16;;;;;;;;;10.00;10.00;;;;;;;;5083700;29;8798;-75
2023/03/17 02:05:50;;;;;;;;;11.00;10.40;;;;;;;;5084365;29;8888;-76
2023/03/17 02:08:21;;;;;;;;;9.80;9.40;;;;;;;;5085653;29;8898;-75
2023/03/17 02:10:52;;;;;;;;;13.00;12.80;;;;;;;;5086941;29;9633;-75
2023/03/17 02:13:23;;;;;;;;;16.60;16.40;;;;;;;;5087284;29;8791;-75
2023/03/17 02:15:58;;;;;;;;;13.40;13.40;;;;;;;;5087380;29;8791;-74
2023/03/17 02:18:29;;;;;;;;;9.00;8.00;;;;;;;;5092398;29;8862;-75
2023/03/17 02:21:39;;;;;;;;;8.80;8.80;;;;;;;;5084481;29;8888;-74
2023/03/17 02:24:16;;;;;;;;;11.00;11.00;;;;;;;;5086812;29;8884;-74
2023/03/17 02:26:49;;;;;;;;;14.20;13.40;;;;;;;;5088324;29;8793;-74
2023/03/17 02:29:21;;;;;;;;;11.20;10.20;;;;;;;;5105499;29;8799;-73
2023/03/17 02:31:53;;;;;;;;;12.80;12.80;;;;;;;;5074998;29;8783;-73
2023/03/17 02:34:26;;;;;;;;;10.40;10.40;;;;;;;;5107862;29;8806;-74
2023/03/17 02:36:58;;;;;;;;;10.60;10.60;;;;;;;;5107918;29;8787;-73
2023/03/17 02:39:29;;;;;;;;;13.60;13.20;;;;;;;;5106469;29;8807;-74
2023/03/17 02:42:00;;;;;;;;;6.20;6.20;;;;;;;;5087833;29;8827;-74
2023/03/17 02:44:49;;;;;;;;;9.40;9.40;;;;;;;;5086701;29;8802;-73
2023/03/17 02:47:22;;;;;;;;;10.80;10.60;;;;;;;;5067575;29;8846;-73
2023/03/17 02:49:54;;;;;;;;;15.60;15.60;;;;;;;;5089938;29;8839;-73
2023/03/17 02:52:25;;;;;;;;;11.40;11.40;;;;;;;;5106120;29;8837;-74
2023/03/17 02:54:56;;;;;;;;;3.20;3.20;;;;;;;;5080481;29;8807;-74
2023/03/17 02:57:27;;;;;;;;;13.00;12.80;;;;;;;;5106132;29;8866;-74
2023/03/17 02:59:58;;;;;;;;;12.00;12.00;;;;;;;;5107491;29;9547;-74
2023/03/17 03:02:29;;;;;;;;;11.40;11.40;;;;;;;;5107172;29;8807;-75
2023/03/17 03:04:59;;;;;;;;;9.50;9.50;;;;;;;;5104372;29;8845;-75
2023/03/17 03:07:31;;;;;;;;;9.40;9.40;;;;;;;;5086205;29;11493;-75
2023/03/17 03:10:02;;;;;;;;;11.00;11.00;;;;;;;;5086132;29;9020;-75
2023/03/17 03:12:34;;;;;;;;;12.20;12.00;;;;;;;;5086462;29;8814;-73
2023/03/17 03:15:05;;;;;;;;;11.00;11.00;;;;;;;;5086260;29;8822;-74
2023/03/17 03:17:36;;;;;;;;;12.20;12.20;;;;;;;;5070148;29;8865;-72
2023/03/17 03:20:26;;;;;;;;;11.40;11.40;;;;;;;;5092054;29;8930;-73
2023/03/17 03:22:57;;;;;;;;;11.60;11.60;;;;;;;;5105586;29;8814;-73
2023/03/17 03:25:28;;;;;;;;;12.00;12.00;;;;;;;;5092822;29;8821;-75
2023/03/17 03:27:59;;;;;;;;;7.25;7.25;;;;;;;;5070079;29;8822;-74
2023/03/17 03:30:30;;;;;;;;;6.80;6.80;;;;;;;;5085863;29;10712;-74
2023/03/17 03:33:01;;;;;;;;;6.25;6.25;;;;;;;;5087426;29;8798;-80
2023/03/17 03:35:33;;;;;;;;;7.20;7.20;;;;;;;;5100008;29;9006;-77
2023/03/17 03:38:04;;;;;;;;;39.60;35.00;;;;;;;;5105249;29;8796;-77
2023/03/17 03:40:36;;;;;;;;;24.00;18.60;;;;;;;;5104397;29;8823;-79
2023/03/17 03:43:07;;;;;;;;;9.20;9.20;;;;;;;;5104492;29;8796;-74
2023/03/17 03:45:38;;;;;;;;;7.00;7.00;;;;;;;;5104356;29;8800;-75
2023/03/17 03:48:10;;;;;;;;;7.80;7.80;;;;;;;;5088107;29;8807;-74
2023/03/17 03:51:00;;;;;;;;;12.00;12.00;;;;;;;;5080531;29;8849;-75
2023/03/17 03:53:31;;;;;;;;;8.00;8.00;;;;;;;;5069523;29;8819;-75
2023/03/17 03:56:03;;;;;;;;;8.20;7.80;;;;;;;;5104368;29;9929;-75
2023/03/17 03:58:34;;;;;;;;;12.60;12.00;;;;;;;;5087864;29;8787;-74
2023/03/17 04:01:06;;;;;;;;;10.00;10.00;;;;;;;;5105139;29;8830;-75
2023/03/17 04:03:37;;;;;;;;;12.00;11.20;;;;;;;;5103387;29;8803;-77
2023/03/17 04:06:09;;;;;;;;;13.20;13.20;;;;;;;;5102653;29;8890;-76
2023/03/17 04:08:40;;;;;;;;;12.00;12.00;;;;;;;;5103512;29;8798;-78
2023/03/17 04:11:11;;;;;;;;;16.40;16.40;;;;;;;;5103744;29;8910;-77
2023/03/17 04:13:42;;;;;;;;;20.60;17.80;;;;;;;;5103714;29;8834;-76
2023/03/17 04:16:13;;;;;;;;;23.60;21.60;;;;;;;;5103672;29;8827;-78
2023/03/17 04:18:45;;;;;;;;;27.20;25.20;;;;;;;;5102613;29;8848;-77
2023/03/17 04:21:17;;;;;;;;;21.60;21.60;;;;;;;;5104175;29;8962;-79
2023/03/17 04:23:48;;;;;;;;;23.80;23.80;;;;;;;;5065403;29;8904;-76
2023/03/17 04:26:38;;;;;;;;;22.00;20.40;;;;;;;;5084518;29;8802;-75
2023/03/17 04:29:14;;;;;;;;;17.50;17.50;;;;;;;;5100372;29;8812;-75
2023/03/17 04:32:03;;;;;;;;;17.40;17.40;;;;;;;;5084651;29;11569;-75
2023/03/17 04:34:34;;;;;;;;;12.60;12.40;;;;;;;;5052920;29;8797;-75
2023/03/17 04:37:06;;;;;;;;;27.20;25.20;;;;;;;;5069234;29;8817;-77
2023/03/17 04:39:37;;;;;;;;;23.80;23.00;;;;;;;;5099572;29;8819;-76
2023/03/17 04:42:08;;;;;;;;;58.00;47.80;;;;;;;;5086429;29;8905;-78
2023/03/17 04:44:39;;;;;;;;;47.20;41.40;;;;;;;;5103805;29;9558;-78
2023/03/17 04:47:11;;;;;;;;;21.20;20.20;;;;;;;;5102228;29;8822;-80
2023/03/17 04:49:42;;;;;;;;;23.40;23.00;;;;;;;;5099900;29;8861;-79
2023/03/17 04:52:13;;;;;;;;;27.60;26.40;;;;;;;;5088336;29;8847;-78
2023/03/17 04:54:44;;;;;;;;;34.50;33.50;;;;;;;;5102262;29;8831;-77
2023/03/17 04:57:15;;;;;;;;;39.40;35.20;;;;;;;;5087605;29;8815;-78
2023/03/17 04:59:46;;;;;;;;;50.20;42.00;;;;;;;;5085367;29;8894;-73
2023/03/17 05:02:17;;;;;;;;;59.40;48.80;;;;;;;;5067838;29;8809;-76
2023/03/17 05:04:48;;;;;;;;;57.80;46.80;;;;;;;;5101572;29;8885;-75
2023/03/17 05:07:19;;;;;;;;;44.60;40.80;;;;;;;;5086600;29;8839;-75
2023/03/17 05:09:51;;;;;;;;;56.80;47.20;;;;;;;;5071743;29;9627;-74
2023/03/17 05:12:22;;;;;;;;;61.20;51.60;;;;;;;;5103624;29;8791;-80
2023/03/17 05:14:52;;;;;;;;;64.00;52.75;;;;;;;;5104667;29;8857;-76
2023/03/17 05:17:23;;;;;;;;;55.75;47.25;;;;;;;;5087357;29;8866;-77
2023/03/17 05:19:54;;;;;;;;;71.20;56.60;;;;;;;;5074817;29;9591;-76
2023/03/17 05:22:26;;;;;;;;;58.50;49.00;;;;;;;;5092887;29;8922;-76
2023/03/17 05:24:57;;;;;;;;;45.20;39.60;;;;;;;;5065669;29;11655;-75
2023/03/17 05:27:28;;;;;;;;;38.20;37.00;;;;;;;;5065896;29;8809;-79
2023/03/17 05:29:59;;;;;;;;;47.80;42.00;;;;;;;;5081814;29;8863;-76
2023/03/17 05:32:30;;;;;;;;;63.40;52.00;;;;;;;;5050312;29;8810;-75
2023/03/17 05:35:02;;;;;;;;;60.20;48.60;;;;;;;;5095894;29;8901;-75
2023/03/17 05:37:33;;;;;;;;;30.20;29.60;;;;;;;;5100708;29;8843;-76
2023/03/17 05:40:05;;;;;;;;;31.80;30.60;;;;;;;;5069366;29;8961;-74
2023/03/17 05:42:54;;;;;;;;;41.00;37.80;;;;;;;;5102435;29;8815;-75
2023/03/17 05:45:44;;;;;;;;;28.60;28.20;;;;;;;;5101773;28;8795;-78
2023/03/17 05:48:17;;;;;;;;;43.60;39.80;;;;;;;;5087266;29;8864;-83
2023/03/17 05:54:24;;;;;;;;;51.40;43.20;;;;;;;;5100388;29;8640;-82
2023/03/17 06:00:14;;;;;;;;;54.60;45.60;;;;;;;;5894914;23;9532;31
2023/03/17 06:06:43;;;;;;;;;43.20;38.60;;;;;;;;5703364;23;8919;-85
2023/03/17 06:09:27;;;;;;;;;35.80;33.20;;;;;;;;5748267;23;8825;-84
2023/03/17 06:15:12;;;;;;;;;36.40;33.60;;;;;;;;5143054;23;9005;-83
2023/03/17 06:20:37;;;;;;;;;23.20;22.40;;;;;;;;5067226;29;8942;-85
2023/03/17 06:23:11;;;;;;;;;15.80;14.60;;;;;;;;5036330;29;8844;-85
2023/03/17 06:25:44;;;;;;;;;16.40;15.80;;;;;;;;5036199;29;8799;-85
2023/03/17 06:28:18;;;;;;;;;14.20;14.00;;;;;;;;5016163;29;8804;-85
2023/03/17 06:30:51;;;;;;;;;18.80;18.20;;;;;;;;5047104;29;8845;-85
2023/03/17 06:33:25;;;;;;;;;59.60;49.60;;;;;;;;5049936;29;8890;-87
2023/03/17 06:35:59;;;;;;;;;82.20;67.20;;;;;;;;5018976;29;8811;-84
2023/03/17 06:38:33;;;;;;;;;39.00;37.00;;;;;;;;5033530;29;8812;-85
2023/03/17 06:41:06;;;;;;;;;35.60;33.00;;;;;;;;5034135;29;8824;-83
2023/03/17 06:44:00;;;;;;;;;31.00;28.80;;;;;;;;5076519;29;8861;-85
2023/03/17 06:46:33;;;;;;;;;26.80;26.20;;;;;;;;5055463;29;9540;-85
2023/03/17 06:49:06;;;;;;;;;25.20;25.20;;;;;;;;5083633;29;8929;-84
2023/03/17 06:51:39;;;;;;;;;30.80;30.00;;;;;;;;5041509;29;8862;-84
2023/03/17 07:16:35;;;;;;;;;14.80;14.80;;;;;;;;5242770;23;8937;-84
2023/03/17 07:19:07;;;;;;;;;12.80;12.80;;;;;;;;5054500;29;8821;-81
2023/03/17 07:21:38;;;;;;;;;11.00;11.00;;;;;;;;5031188;29;8870;-81
2023/03/17 07:24:10;;;;;;;;;13.00;13.00;;;;;;;;5031053;29;8806;-81
2023/03/17 07:26:41;;;;;;;;;28.00;23.00;;;;;;;;5015543;29;9578;-78
2023/03/17 07:29:13;;;;;;;;;7.20;7.00;;;;;;;;5063447;29;9507;-79
2023/03/17 07:31:44;;;;;;;;;33.20;32.60;;;;;;;;5028705;29;8842;-81
2023/03/17 07:34:34;;;;;;;;;41.40;35.00;;;;;;;;5061950;29;8926;-82
2023/03/17 07:37:05;;;;;;;;;30.00;29.00;;;;;;;;5049427;29;8824;-81
2023/03/17 07:39:55;;;;;;;;;29.00;28.80;;;;;;;;5038487;29;8847;-82
2023/03/17 07:42:27;;;;;;;;;29.40;28.00;;;;;;;;5034287;29;8844;-88
2023/03/17 07:45:17;;;;;;;;;28.20;27.00;;;;;;;;5052684;29;8820;-80
2023/03/17 07:47:49;;;;;;;;;46.75;41.75;;;;;;;;5060700;29;8832;-79
2023/03/17 07:50:20;;;;;;;;;27.20;27.20;;;;;;;;5049463;29;11697;-79
2023/03/17 07:52:51;;;;;;;;;55.00;46.40;;;;;;;;5049538;29;8843;-80
2023/03/17 07:55:23;;;;;;;;;39.50;37.75;;;;;;;;5067062;29;8838;-80
2023/03/17 07:57:54;;;;;;;;;26.40;26.40;;;;;;;;5034403;29;11682;-79
2023/03/17 08:00:26;;;;;;;;;23.00;21.60;;;;;;;;5049245;29;8860;-80
2023/03/17 08:02:57;;;;;;;;;14.00;14.00;;;;;;;;5033808;29;8905;-81
2023/03/17 08:05:28;;;;;;;;;12.00;11.00;;;;;;;;5066500;29;8812;-81
2023/03/17 08:07:59;;;;;;;;;12.40;12.40;;;;;;;;5018867;29;8808;-78
2023/03/17 08:10:30;;;;;;;;;25.00;24.75;;;;;;;;5049629;29;8968;-78
2023/03/17 08:13:01;;;;;;;;;38.60;37.00;;;;;;;;5049798;29;8950;-79
2023/03/17 08:15:32;;;;;;;;;47.00;40.00;;;;;;;;5033886;29;8990;-78
2023/03/17 08:18:03;;;;;;;;;31.75;30.50;;;;;;;;5034324;29;11683;-78
2023/03/17 08:20:35;;;;;;;;;21.50;21.50;;;;;;;;5065731;29;8846;-80
2023/03/17 08:23:06;;;;;;;;;28.20;27.40;;;;;;;;5033884;29;11666;-77
2023/03/17 08:25:37;;;;;;;;;13.00;13.00;;;;;;;;5048970;29;8848;-77
2023/03/17 08:28:09;;;;;;;;;2.20;2.20;;;;;;;;5065387;29;8840;-79
2023/03/17 08:30:41;;;;;;;;;13.80;13.40;;;;;;;;5049128;29;8982;-78
2023/03/17 08:33:12;;;;;;;;;12.80;12.80;;;;;;;;5048876;29;8828;-79
2023/03/17 08:35:43;;;;;;;;;17.00;17.00;;;;;;;;5065963;29;8852;-79
2023/03/17 08:38:14;;;;;;;;;14.40;14.40;;;;;;;;5033139;29;8963;-77
2023/03/17 08:40:45;;;;;;;;;31.80;31.80;;;;;;;;5048453;29;8852;-79
2023/03/17 08:43:19;;;;;;;;;13.00;12.00;;;;;;;;5048918;29;8831;-80
2023/03/17 08:45:50;;;;;;;;;16.50;16.50;;;;;;;;5051161;29;8907;-78
2023/03/17 08:48:21;;;;;;;;;10.50;10.50;;;;;;;;5063519;29;11222;-80
2023/03/17 08:50:52;;;;;;;;;14.40;14.40;;;;;;;;5063657;29;8962;-78
2023/03/17 08:53:41;;;;;;;;;16.60;15.20;;;;;;;;5042787;29;8862;-79
2023/03/17 08:56:12;;;;;;;;;77.40;61.80;;;;;;;;5028317;29;8822;-78
2023/03/17 08:58:43;;;;;;;;;35.20;33.80;;;;;;;;5046984;29;8827;-79
2023/03/17 09:01:15;;;;;;;;;20.75;20.75;;;;;;;;5063504;29;8996;-78
2023/03/17 09:03:50;;;;;;;;;15.40;15.40;;;;;;;;5046219;29;8860;-78
2023/03/17 09:06:21;;;;;;;;;16.80;16.00;;;;;;;;5046651;29;8855;-78
2023/03/17 09:08:54;;;;;;;;;17.00;16.60;;;;;;;;5046829;29;8845;-79
2023/03/17 09:11:26;;;;;;;;;19.40;19.40;;;;;;;;5046095;29;8918;-78
2023/03/17 09:14:15;;;;;;;;;14.60;14.60;;;;;;;;5063229;29;8828;-79
2023/03/17 09:16:47;;;;;;;;;22.80;22.80;;;;;;;;5031058;29;8906;-80
2023/03/17 09:19:19;;;;;;;;;24.00;23.60;;;;;;;;5030661;29;8890;-78
2023/03/17 09:21:50;;;;;;;;;26.60;25.40;;;;;;;;5037024;29;8832;-79
2023/03/17 09:24:21;;;;;;;;;28.60;28.60;;;;;;;;5027533;29;8853;-77
2023/03/17 09:26:52;;;;;;;;;25.75;25.75;;;;;;;;5031316;29;8832;-76
2023/03/17 09:29:42;;;;;;;;;36.20;35.40;;;;;;;;5063266;29;10288;-80
2023/03/17 09:32:12;;;;;;;;;42.60;37.00;;;;;;;;5062596;29;8863;-78
2023/03/17 09:35:02;;;;;;;;;30.20;30.20;;;;;;;;5048516;29;8832;-76
2023/03/17 09:37:34;;;;;;;;;25.80;23.60;;;;;;;;5062970;29;8844;-78
2023/03/17 09:40:30;;;;;;;;;15.00;15.00;;;;;;;;5033178;29;8867;-76
2023/03/17 09:43:04;;;;;;;;;14.20;14.20;;;;;;;;5014867;29;8860;-77
2023/03/17 09:45:37;;;;;;;;;13.00;13.00;;;;;;;;5013752;29;8839;-76
2023/03/17 09:48:21;;;;;;;;;15.40;15.40;;;;;;;;5015266;29;8872;-78
2023/03/17 09:51:07;;;;;;;;;15.80;15.40;;;;;;;;5063028;29;8904;-77
2023/03/17 09:53:41;;;;;;;;;17.20;17.00;;;;;;;;5036511;29;8830;-77
2023/03/17 09:56:15;;;;;;;;;27.20;26.20;;;;;;;;5061266;29;8863;-77
2023/03/17 09:58:49;;;;;;;;;24.40;24.40;;;;;;;;5016059;29;8856;-78
2023/03/17 10:01:21;;;;;;;;;34.40;33.00;;;;;;;;5061895;29;8848;-78
2023/03/17 10:04:11;;;;;;;;;42.40;39.00;;;;;;;;5029847;29;8923;-82
2023/03/17 10:06:45;;;;;;;;;40.40;37.60;;;;;;;;5061193;29;8927;-80
2023/03/17 10:09:39;;;;;;;;;28.60;28.60;;;;;;;;5044342;29;8916;-78
2023/03/17 10:12:14;;;;;;;;;12.00;12.00;;;;;;;;5015686;29;8975;-80
2023/03/17 10:14:51;;;;;;;;;18.00;17.20;;;;;;;;5047001;29;8860;-78
2023/03/17 10:17:24;;;;;;;;;11.00;10.00;;;;;;;;5030859;29;8848;-79
2023/03/17 10:19:59;;;;;;;;;13.40;13.00;;;;;;;;5028604;29;8863;-78
2023/03/17 10:22:51;;;;;;;;;14.20;14.20;;;;;;;;5064959;29;8875;-78
2023/03/17 10:25:33;;;;;;;;;31.00;28.00;;;;;;;;5047051;29;8818;-80
2023/03/17 10:28:22;;;;;;;;;24.60;24.60;;;;;;;;5034767;29;8963;-81
2023/03/17 10:30:54;;;;;;;;;19.25;19.25;;;;;;;;5047547;29;8974;-80
2023/03/17 10:33:25;;;;;;;;;26.20;24.20;;;;;;;;5017731;29;9821;-76
2023/03/17 10:36:05;;;;;;;;;34.20;31.80;;;;;;;;5047531;29;9516;-78
2023/03/17 10:38:55;;;;;;;;;27.00;25.40;;;;;;;;5050129;29;8844;-80
2023/03/17 10:41:52;;;;;;;;;11.40;11.40;;;;;;;;5034221;29;8808;-79
2023/03/17 10:44:53;;;;;;;;;9.00;9.00;;;;;;;;5036149;29;8816;-79
2023/03/17 10:47:28;;;;;;;;;12.60;11.40;;;;;;;;5047873;29;9564;-77
2023/03/17 10:50:20;;;;;;;;;31.00;28.20;;;;;;;;5035556;29;8856;-78
2023/03/17 10:52:59;;;;;;;;;23.80;21.60;;;;;;;;5051150;29;8851;-77
2023/03/17 10:55:39;;;;;;;;;71.00;57.00;;;;;;;;5067154;29;8931;-77
2023/03/17 10:58:29;;;;;;;;;28.20;27.00;;;;;;;;5061831;29;8820;-80
2023/03/17 11:01:19;;;;;;;;;24.80;23.60;;;;;;;;5051775;29;8903;-79
2023/03/17 11:03:50;;;;;;;;;37.20;35.40;;;;;;;;5051694;29;9597;-81
2023/03/17 11:06:32;;;;;;;;;17.25;17.00;;;;;;;;5037454;29;8824;-81
2023/03/17 11:09:08;;;;;;;;;17.80;17.80;;;;;;;;5039509;29;11655;-82
2023/03/17 11:11:45;;;;;;;;;26.80;20.80;;;;;;;;5037587;29;8848;-81
2023/03/17 11:14:17;;;;;;;;;41.80;37.00;;;;;;;;5034395;29;8808;-78
2023/03/17 11:16:52;;;;;;;;;54.40;44.60;;;;;;;;5065985;29;8899;-79
2023/03/17 11:19:26;;;;;;;;;38.20;36.40;;;;;;;;5067617;29;8843;-80
2023/03/17 11:22:08;;;;;;;;;42.60;40.20;;;;;;;;5049513;29;8915;-78
2023/03/17 11:24:54;;;;;;;;;35.20;31.40;;;;;;;;5068493;29;8944;-80
2023/03/17 11:27:29;;;;;;;;;41.60;36.00;;;;;;;;5051661;29;9722;-81
2023/03/17 11:30:15;;;;;;;;;58.00;43.60;;;;;;;;5049807;29;8836;-80
2023/03/17 11:33:04;;;;;;;;;59.80;47.40;;;;;;;;5035324;29;8831;-80
2023/03/17 11:35:51;;;;;;;;;72.60;51.60;;;;;;;;5036855;29;8970;-81
2023/03/17 11:38:23;;;;;;;;;72.80;54.80;;;;;;;;5050645;29;8836;-82
2023/03/17 11:40:54;;;;;;;;;71.20;52.80;;;;;;;;5034812;29;8828;-81
2023/03/17 11:43:47;;;;;;;;;70.00;52.50;;;;;;;;5066057;29;8939;-82
2023/03/17 11:46:26;;;;;;;;;76.20;57.00;;;;;;;;5025198;29;8932;-82
2023/03/17 11:49:35;;;;;;;;;51.20;44.40;;;;;;;;5052435;29;8847;-81
2023/03/17 11:52:13;;;;;;;;;69.80;53.00;;;;;;;;5036135;29;8843;-81
2023/03/17 11:54:59;;;;;;;;;63.20;47.00;;;;;;;;5021623;29;8812;-79
2023/03/17 11:57:34;;;;;;;;;59.60;50.20;;;;;;;;5018842;29;9594;-81
2023/03/17 12:00:06;;;;;;;;;57.60;43.20;;;;;;;;5066185;29;8816;-82
2023/03/17 12:02:48;;;;;;;;;58.80;47.80;;;;;;;;5066106;29;8816;-77
2023/03/17 12:05:23;;;;;;;;;60.80;49.00;;;;;;;;5033908;29;8835;-81
2023/03/17 12:08:05;;;;;;;;;58.40;45.20;;;;;;;;5042373;29;8827;-81
2023/03/17 12:10:41;;;;;;;;;57.60;47.20;;;;;;;;5033751;29;8851;-81
2023/03/17 12:13:45;;;;;;;;;61.40;51.00;;;;;;;;5049602;29;9650;-80
2023/03/17 12:16:37;;;;;;;;;52.80;42.00;;;;;;;;5048031;29;8892;-82
2023/03/17 12:19:23;;;;;;;;;51.60;41.80;;;;;;;;5045808;29;8851;-76
2023/03/17 12:22:05;;;;;;;;;23.40;16.00;;;;;;;;5048543;29;8916;-77
2023/03/17 12:24:39;;;;;;;;;49.40;42.20;;;;;;;;5018059;29;8828;-77
2023/03/17 12:27:26;;;;;;;;;45.40;40.80;;;;;;;;5033104;29;8959;-79
2023/03/17 12:30:04;;;;;;;;;51.20;43.80;;;;;;;;5049397;29;8866;-77
2023/03/17 12:32:53;;;;;;;;;40.20;34.20;;;;;;;;5066038;29;8856;-78
2023/03/17 12:35:27;;;;;;;;;39.60;37.80;;;;;;;;5049128;29;9568;-76
2023/03/17 12:37:59;;;;;;;;;70.20;57.60;;;;;;;;5048375;29;9023;-78
2023/03/17 12:40:36;;;;;;;;;70.00;53.20;;;;;;;;5033263;29;8824;-84
2023/03/17 12:43:26;;;;;;;;;51.20;44.20;;;;;;;;5048269;29;8835;-82
2023/03/17 12:46:13;;;;;;;;;62.20;46.80;;;;;;;;5036329;29;8943;-77
2023/03/17 12:48:58;;;;;;;;;57.20;46.60;;;;;;;;5041883;29;8958;-76
2023/03/17 12:51:47;;;;;;;;;51.00;43.00;;;;;;;;5048848;29;8864;-77
2023/03/17 12:54:20;;;;;;;;;56.00;45.00;;;;;;;;5048136;29;8886;-76
2023/03/17 12:57:13;;;;;;;;;46.40;42.60;;;;;;;;5050490;29;8832;-77
2023/03/17 13:00:14;;;;;;;;;32.20;30.40;;;;;;;;5046211;29;8827;-76
2023/03/17 13:03:13;;;;;;;;;27.80;27.40;;;;;;;;5034447;29;8840;-76
2023/03/17 13:05:45;;;;;;;;;24.20;24.00;;;;;;;;5048840;29;8885;-77
2023/03/17 13:08:22;;;;;;;;;22.00;22.00;;;;;;;;5047967;29;9665;-76
2023/03/17 13:11:13;;;;;;;;;77.00;61.40;;;;;;;;5048743;29;8851;-76
2023/03/17 13:13:53;;;;;;;;;31.00;31.00;;;;;;;;5043157;29;8824;-76
2023/03/17 13:16:46;;;;;;;;;18.40;18.40;;;;;;;;5034706;29;8961;-76
2023/03/17 13:19:25;;;;;;;;;32.00;32.00;;;;;;;;5047823;29;8828;-75
2023/03/17 13:22:16;;;;;;;;;35.60;28.80;;;;;;;;5047760;29;8915;-76
2023/03/17 13:24:49;;;;;;;;;28.40;27.60;;;;;;;;5061716;29;8812;-75
2023/03/17 13:27:32;;;;;;;;;31.60;29.80;;;;;;;;5032417;29;9548;-75
2023/03/17 13:30:23;;;;;;;;;61.60;52.80;;;;;;;;5050658;29;9532;-75
2023/03/17 13:33:09;;;;;;;;;72.40;58.60;;;;;;;;5047943;29;8843;-74
2023/03/17 13:35:45;;;;;;;;;29.40;28.00;;;;;;;;5028827;29;8832;-75
2023/03/17 13:38:44;;;;;;;;;29.80;28.00;;;;;;;;5034870;29;8828;-75
2023/03/17 13:41:30;;;;;;;;;76.80;62.60;;;;;;;;5032278;29;8836;-75
2023/03/17 13:44:02;;;;;;;;;6.80;6.80;;;;;;;;5019731;29;8862;-75
2023/03/17 13:46:37;;;;;;;;;24.50;24.50;;;;;;;;5036079;29;8942;-76
2023/03/17 13:49:17;;;;;;;;;22.00;22.00;;;;;;;;5030698;29;9572;-75
2023/03/17 13:51:51;;;;;;;;;49.40;44.80;;;;;;;;5047551;29;8832;-74
2023/03/17 13:54:25;;;;;;;;;38.20;37.40;;;;;;;;5047022;29;8816;-76
2023/03/17 13:56:58;;;;;;;;;80.00;62.80;;;;;;;;5063826;29;8832;-75
2023/03/17 13:59:55;;;;;;;;;109.33;101.67;;;;;;;;5017634;29;8824;-76
2023/03/17 14:02:30;;;;;;;;;27.20;27.20;;;;;;;;5056168;29;9267;-75
2023/03/17 14:05:05;;;;;;;;;35.20;35.20;;;;;;;;5037994;29;8835;-74
2023/03/17 14:07:46;;;;;;;;;65.00;53.40;;;;;;;;5066901;29;8848;-74
2023/03/17 14:10:22;;;;;;;;;41.00;39.60;;;;;;;;5054537;29;8928;-75
2023/03/17 14:13:11;;;;;;;;;39.80;37.00;;;;;;;;5028897;29;8897;-74
2023/03/17 14:16:02;;;;;;;;;25.20;25.20;;;;;;;;5047428;29;8831;-74
2023/03/17 14:18:34;;;;;;;;;94.60;79.00;;;;;;;;5031904;29;8813;-75
2023/03/17 14:21:18;;;;;;;;;62.80;52.20;;;;;;;;5051815;29;8836;-75
2023/03/17 14:23:56;;;;;;;;;83.00;67.60;;;;;;;;5050971;29;9572;-75
2023/03/17 14:26:28;;;;;;;;;63.80;53.40;;;;;;;;5068276;29;8812;-75
2023/03/17 14:29:00;;;;;;;;;57.80;49.80;;;;;;;;5068536;29;8812;-74
2023/03/17 14:31:31;;;;;;;;;39.00;36.80;;;;;;;;5051521;29;8828;-73
2023/03/17 14:34:02;;;;;;;;;13.40;12.40;;;;;;;;5051761;29;8811;-74
2023/03/17 14:36:33;;;;;;;;;49.00;43.40;;;;;;;;5050230;29;8851;-73
2023/03/17 14:39:25;;;;;;;;;16.80;16.40;;;;;;;;5064496;29;8952;-76
2023/03/17 14:42:16;;;;;;;;;52.60;47.40;;;;;;;;5048983;29;9583;-75
2023/03/17 14:44:47;;;;;;;;;50.40;44.20;;;;;;;;5047774;29;8828;-75
2023/03/17 14:47:38;;;;;;;;;72.00;59.40;;;;;;;;5063858;29;8843;-73
2023/03/17 14:50:17;;;;;;;;;38.20;37.40;;;;;;;;5032357;29;8851;-74
2023/03/17 14:52:49;;;;;;;;;35.80;35.80;;;;;;;;5045584;29;8833;-76
2023/03/17 14:55:20;;;;;;;;;67.00;55.40;;;;;;;;5044516;29;8860;-76
2023/03/17 14:57:51;;;;;;;;;43.20;40.80;;;;;;;;5011261;29;8804;-73
2023/03/17 15:00:55;;;;;;;;;76.00;63.40;;;;;;;;5013133;29;8867;-74
2023/03/17 15:03:28;;;;;;;;;62.80;53.00;;;;;;;;4993964;29;8850;-74
2023/03/17 15:06:25;;;;;;;;;45.00;41.40;;;;;;;;5045440;29;8901;-77
2023/03/17 15:08:56;;;;;;;;;24.60;24.60;;;;;;;;5011284;29;8976;-75
2023/03/17 15:11:37;;;;;;;;;69.60;57.00;;;;;;;;5045569;29;8874;-74
2023/03/17 15:14:34;;;;;;;;;35.00;33.40;;;;;;;;5050825;29;8820;-72
2023/03/17 15:17:13;;;;;;;;;43.20;40.60;;;;;;;;5065012;29;8836;-74
2023/03/17 15:19:45;;;;;;;;;61.00;52.20;;;;;;;;5054878;29;8845;-74
2023/03/17 15:22:29;;;;;;;;;70.20;58.60;;;;;;;;5037402;29;8832;-73
2023/03/17 15:25:30;;;;;;;;;37.40;35.00;;;;;;;;5057219;29;8807;-74
2023/03/17 15:28:06;;;;;;;;;60.80;50.60;;;;;;;;5034777;29;8784;-72
2023/03/17 15:30:41;;;;;;;;;63.40;54.40;;;;;;;;5049620;29;8852;-77
2023/03/17 15:33:18;;;;;;;;;47.60;43.60;;;;;;;;5020000;29;8824;-78
2023/03/17 15:35:49;;;;;;;;;81.40;67.00;;;;;;;;5035117;29;8812;-77
2023/03/17 15:38:20;;;;;;;;;74.60;62.00;;;;;;;;5050452;29;8809;-75
2023/03/17 15:40:51;;;;;;;;;38.20;37.20;;;;;;;;5050137;29;8828;-76
2023/03/17 15:43:22;;;;;;;;;28.00;27.60;;;;;;;;5034856;29;8816;-76
2023/03/17 15:45:55;;;;;;;;;10.00;10.00;;;;;;;;5019680;29;8785;-76
2023/03/17 15:48:28;;;;;;;;;37.20;34.40;;;;;;;;5066196;29;8854;-76
2023/03/17 15:51:00;;;;;;;;;21.40;21.40;;;;;;;;5034893;29;8832;-75
2023/03/17 15:53:31;;;;;;;;;45.60;41.00;;;;;;;;5035038;29;8844;-72
2023/03/17 15:56:20;;;;;;;;;13.60;12.20;;;;;;;;5066942;29;8902;-74
2023/03/17 15:58:51;;;;;;;;;56.60;48.60;;;;;;;;5049666;29;8820;-73
2023/03/17 16:01:22;;;;;;;;;37.50;36.00;;;;;;;;5067262;29;8878;-74
2023/03/17 16:03:53;;;;;;;;;63.75;54.25;;;;;;;;5066753;29;8800;-74